Sunday, September 23, 2018, 12:29 AM EDT
Back to Local

KCAR, Caribou Municipal Airport

Location: Caribou, ME, United States Lat: 46.867
Local Time: 12:29 AM EDT ( 4:29 GMT) Lon: -68.017
Time Zone: US/Eastern Elev: 626 ft

Show me the last for .
Show Decoded

2018-09-22 23:54 METAR KCAR 230354Z AUTO 27003KT 10SM CLR 06/02 A3015 RMK AO2 SLP216 T00610017 =
2018-09-22 22:54 METAR KCAR 230254Z AUTO VRB03KT 10SM CLR 05/02 A3014 RMK AO2 SLP213 T00500017
                 53009 =
2018-09-22 21:54 METAR KCAR 230154Z AUTO 19003KT 10SM CLR 06/02 A3012 RMK AO2 SLP207 T00610022 =
2018-09-22 20:54 METAR KCAR 230054Z AUTO 25004KT 10SM CLR 08/02 A3012 RMK AO2 SLP205 T00780017 =
2018-09-22 19:54 METAR KCAR 222354Z AUTO 00000KT 10SM CLR 09/02 A3011 RMK AO2 SLP203 T00890017
                 10156 20089 53024 =
2018-09-22 18:54 METAR KCAR 222254Z AUTO 00000KT 10SM CLR 11/01 A3008 RMK AO2 SLP191 T01060011 =
2018-09-22 17:54 METAR KCAR 222154Z AUTO 29005KT 10SM CLR 13/01 A3006 RMK AO2 SLP182 T01280006 =
2018-09-22 16:54 METAR KCAR 222054Z AUTO 30008G16KT 10SM CLR 14/M01 A3004 RMK AO2 SLP177
                 T01391006 51013 =
2018-09-22 15:54 METAR KCAR 221954Z AUTO 30010G16KT 10SM CLR 14/00 A3003 RMK AO2 SLP173 T01440000
                 =
2018-09-22 14:54 METAR KCAR 221854Z AUTO 30011G19KT 10SM CLR 15/M01 A3002 RMK AO2 SLP170
                 T01501006 =
2018-09-22 13:54 METAR KCAR 221754Z AUTO 30013G24KT 10SM CLR 14/00 A3000 RMK AO2 PK WND
                 30027/1725 SLP164 T01440000 10144 20106 51013 =
2018-09-22 12:54 METAR KCAR 221654Z AUTO 32011G21KT 10SM FEW060 14/01 A2999 RMK AO2 SLP161
                 T01440006 =
2018-09-22 11:54 METAR KCAR 221554Z AUTO 31013G21KT 10SM FEW050 13/01 A2999 RMK AO2 SLP161
                 T01280006 =
2018-09-22 10:54 METAR KCAR 221454Z AUTO 31012G22KT 10SM CLR 12/01 A2996 RMK AO2 PK WND
                 33029/1429 SLP151 T01220011 51059 =
2018-09-22 09:54 METAR KCAR 221354Z AUTO 32018G29KT 10SM BKN043 12/01 A2993 RMK AO2 PK WND
                 31029/1353 SLP140 T01170011 =
2018-09-22 08:54 METAR KCAR 221254Z AUTO 30008G21KT 10SM FEW036 12/03 A2987 RMK AO2 PK WND
                 34031/1215 PRESRR SLP119 T01170033 =
2018-09-22 07:54 METAR KCAR 221154Z AUTO 31010G18KT 10SM FEW031 SCT043 12/07 A2978 RMK AO2 PK WND
                 31027/1120 PRESRR SLP090 60006 70038 T01220067 10167 20122 53065 =
2018-09-22 06:54 METAR KCAR 221054Z AUTO 30009G18KT 10SM FEW025 BKN041 OVC055 15/11 A2967 RMK AO2
                 PRESRR SLP053 T01500111 =
2018-09-22 06:50 METAR KCAR 221050Z AUTO 30012G18KT 10SM FEW025 BKN041 OVC055 16/11 A2966 RMK AO2
                 PRESRR =
2018-09-22 06:37 METAR KCAR 221037Z AUTO 28007G15KT 250V330 10SM SCT025 BKN029 OVC040 16/12 A2964
                 RMK AO2 T01560117 =
2018-09-22 05:54 METAR KCAR 220954Z AUTO 26011G20KT 10SM BKN070 OVC080 16/12 A2959 RMK AO2 RAE04
                 SLP023 P0002 T01560117 =
2018-09-22 04:54 METAR KCAR 220854Z AUTO 26013G27KT 3SM +RA FEW013 SCT033 BKN049 17/14 A2954 RMK
                 AO2 PK WND 28027/0854 RAB47 SLP007 P0004 60004 T01670139 53001 =
2018-09-22 03:54 METAR KCAR 220754Z AUTO 21013G23KT 10SM FEW029 SCT036 16/14 A2950 RMK AO2 SLP993
                 T01610139 =
2018-09-22 02:54 METAR KCAR 220654Z AUTO 20010KT 10SM FEW030 SCT037 16/13 A2952 RMK AO2 SLP998
                 T01560133 =
2018-09-22 02:31 METAR KCAR 220631Z AUTO 20010G20KT 10SM SCT014 OVC038 16/13 A2952 RMK AO2
                 T01560133 =
2018-09-22 01:54 METAR KCAR 220554Z AUTO 21009G18KT 10SM BKN014 OVC019 16/13 A2954 RMK AO2
                 RAB10E20 SLP006 P0000 60023 T01560133 10156 20122 56030 =
2018-09-22 00:54 METAR KCAR 220454Z AUTO 19013G21KT 10SM OVC011 15/13 A2954 RMK AO2 RAE31 SLP006
                 P0002 T01500133 401500067 =

Support USWX by starting your Amazon purchase here.